Detalii statie MOLDOVA TIGANASI [00001D08]

Toti senzorii

Date Temperatura solului [C]Precipitatii [mm]Voltaj baterie [mV]Leaf Wetness [Min]HC Air temperature [C]HC Relative humidity [%]Punctul de roua [C]
medieminmaxsumaultimatimpmedieminmaxmediemediemin
2017-06-25 06:00:00 19.1 19 19.3 0 7020 18.24 16.84 19.81 96.39 17.5 16.8
2017-06-25 07:00:00 19.2 19 19.6 0 7128 20.92 20.19 21.8 84.78 18.1 17.6
2017-06-25 08:00:00 20 19.5 20.5 0 7284 23.17 21.91 24.09 78.41 19 18.4
2017-06-25 09:00:00 21.1 20.6 21.7 0 7352 25.05 24.11 26.03 69.22 18.8 18.2
2017-06-25 10:00:00 22.7 21.9 23.5 0 7352 26.65 26.2 27.12 63.72 19 18.5
2017-06-25 11:00:00 24.4 23.6 25.3 0 7352 27.7 27.14 28.74 61.72 19.4 18.2
2017-06-25 12:00:00 25.9 25.3 26.5 0 7352 28.78 28.12 29.64 58.5 19.6 18.8
2017-06-25 13:00:00 27.1 26.7 27.5 0 7352 29.5 29.17 30.02 55.66 19.4 18.5
2017-06-25 14:00:00 27.6 27.5 27.7 0 7352 30.03 29.63 30.53 52.36 18.9 17.5
2017-06-25 15:00:00 27.7 27.6 27.8 0 7352 30.22 29.88 30.66 51.07 18.7 17.5
2017-06-25 16:00:00 27.7 27.6 27.8 0 7352 30.3 29.99 30.79 50.75 18.7 18.1
2017-06-25 17:00:00 27.2 26.9 27.5 0 7342 30.04 29.8 30.43 49.45 18.1 16.6
2017-06-25 18:00:00 26.4 26 26.9 0 7264 29.4 29.01 29.8 51.75 18.2 17.5
2017-06-25 19:00:00 25.6 25.3 26 0 7254 27.94 26.66 28.86 59.61 19.1 18
2017-06-25 20:00:00 24.8 24.5 25.3 0 7088 25.33 24.32 26.56 72.4 19.8 19.1
2017-06-25 21:00:00 24 23.6 24.3 0 7060 23.37 22.35 24.07 78.84 19.3 19
2017-06-25 22:00:00 23.4 23.2 23.8 0 7000 22.28 21.29 22.71 82.84 19.1 18.7
2017-06-25 23:00:00 22.8 22.4 23 0 6992 21.69 21.17 22.08 84.97 18.9 18.8
2017-06-26 00:00:00 22.4 22.3 22.7 0 6982 21.1 20.45 22.1 89.44 19.1 18.8
2017-06-26 01:00:00 22 21.9 22.3 0 6972 20.08 19.69 20.45 94.78 19 18.8
2017-06-26 02:00:00 21.6 21.4 21.8 0 6962 19.27 18.93 19.55 99.15 19 18.8
2017-06-26 03:00:00 21.2 21.1 21.6 0 6962 18.58 18.29 18.89 100 18.5 18.2
2017-06-26 04:00:00 20.9 20.7 21.1 0 6932 18.41 18.18 18.88 100 18.3 18.1
2017-06-26 05:00:00 20.5 20.4 20.8 0 6942 18.15 17.82 18.7 100 18.1 17.8
2017-06-26 06:00:00 20.4 20.3 20.5 0 7010 19.75 18.9 20.83 99.66 19.6 18.9
2017-06-26 07:00:00 20.6 20.4 21 0 7216 21.83 20.76 23.94 92.85 20.4 20.1
2017-06-26 08:00:00 21.4 21 22.1 0 7332 24.49 23.61 25.87 80.9 20.8 20.1
2017-06-26 09:00:00 22.7 22.1 23.5 0 7352 26.54 25.76 27.47 74.35 21.4 20.6
2017-06-26 10:00:00 24.3 23.4 25.2 0 7342 28.27 27.43 29.33 68.9 21.8 20.8
2017-06-26 11:00:00 26.1 25.3 27 0 7342 29.85 29.13 30.4 65.29 22.4 21.3
2017-06-26 12:00:00 27.8 27.1 28.6 0 7342 30.6 29.98 31.26 61.09 22 21.4
2017-06-26 13:00:00 29.1 28.8 29.6 0 7342 31.74 31.2 32.18 57.13 22 20.5
2017-06-26 14:00:00 29.9 29.7 30.1 0 7342 32.55 31.98 33.04 54.39 21.9 21.1
2017-06-26 15:00:00 29.9 29.8 30.1 0 7352 32.65 32.3 32.97 52.53 21.4 20.1
2017-06-26 16:00:00 29.7 29.4 30 0 7342 32.51 32.26 32.7 48.18 19.9 18
2017-06-26 17:00:00 29 28.4 29.4 0 7342 30.56 29.03 32.65 52.68 19.5 18.7
2017-06-26 18:00:00 27.8 27.4 28.3 0 7264 29.48 28.68 30.67 59.62 20.6 19.8
2017-06-26 19:00:00 27 26.7 27.4 0 7088 27.64 26.9 28.65 68.29 21.1 20.4
2017-06-26 20:00:00 26.3 26 26.7 0 7020 26.79 22.66 28.17 63.77 19.1 16.9
2017-06-26 21:00:00 25.3 24.9 25.9 0 6992 21.14 20.43 22.16 85.94 18.5 17.2
2017-06-26 22:00:00 24.5 24.1 25 0 6982 20.09 19.66 20.36 99.84 20 19.6
2017-06-26 23:00:00 23.9 23.6 24.2 0 6972 19.15 18.85 19.52 100 19.1 18.8
2017-06-27 00:00:00 23.4 23.2 23.6 0 6962 18.66 18.4 18.87 100 18.6 18.4
2017-06-27 01:00:00 22.9 22.7 23.2 0 6952 18.27 17.81 18.52 100 18.2 17.8
2017-06-27 02:00:00 22.4 22.2 22.7 0 6952 17.83 17.31 18.4 100 17.8 17.3
2017-06-27 03:00:00 22 21.9 22.3 0 6932 17.62 17.16 17.84 100 17.5 17.1
2017-06-27 04:00:00 21.6 21.5 22 0.2 6914 17.49 17 18.02 100 17.4 17
2017-06-27 05:00:00 21.4 21.2 21.5 0 6942 18.45 18.2 18.56 100 18.4 18.2